Time;durP1;ratioP1;P1;durP2;ratioP2;P2;SDS_P1;SDS_P2;PMS_P1;PMS_P2;Temp;Humidity;BMP_temperature;BMP_pressure;BME280_temperature;BME280_humidity;BME280_pressure;Samples;Min_cycle;Max_cycle;Signal;HPM_P1;HPM_P2
2021/11/06 00:00:32;;;;;;;40.42;21.60;;;7.40;99.90;;;;;;5051814;28;20554;-56
2021/11/06 00:02:57;;;;;;;47.97;22.73;;;7.50;99.90;;;;;;5050641;28;20036;-60
2021/11/06 00:05:23;;;;;;;45.55;23.48;;;7.40;99.90;;;;;;5051393;28;20106;-57
2021/11/06 00:07:49;;;;;;;46.65;22.60;;;7.50;99.90;;;;;;5050764;28;20059;-57
2021/11/06 00:10:15;;;;;;;50.53;21.90;;;7.40;99.90;;;;;;5033968;28;20025;-58
2021/11/06 00:12:41;;;;;;;46.13;22.70;;;7.50;99.90;;;;;;5048913;28;20021;-58
2021/11/06 00:15:09;;;;;;;46.97;22.02;;;7.60;99.90;;;;;;5051300;28;20504;-58
2021/11/06 00:17:35;;;;;;;51.28;23.67;;;7.60;99.90;;;;;;5046046;28;20036;-57
2021/11/06 00:20:02;;;;;;;46.83;23.98;;;7.60;99.90;;;;;;5051904;28;20087;-55
2021/11/06 00:22:28;;;;;;;44.42;21.73;;;7.50;99.90;;;;;;5049096;28;20033;-57
2021/11/06 00:24:54;;;;;;;45.00;21.33;;;7.50;99.90;;;;;;5050914;28;20021;-57
2021/11/06 00:27:19;;;;;;;48.88;22.15;;;7.50;99.90;;;;;;5050382;28;20410;-58
2021/11/06 00:29:45;;;;;;;43.28;21.98;;;7.40;99.90;;;;;;5051727;28;20410;-58
2021/11/06 00:32:10;;;;;;;43.95;20.67;;;7.30;99.90;;;;;;5050717;28;20016;-57
2021/11/06 00:34:36;;;;;;;41.70;20.05;;;7.30;99.90;;;;;;5050253;28;20416;-59
2021/11/06 00:37:02;;;;;;;44.85;20.27;;;7.20;99.90;;;;;;5050106;28;20444;-57
2021/11/06 00:39:28;;;;;;;42.78;21.90;;;7.30;99.90;;;;;;5051502;28;20154;-54
2021/11/06 00:41:53;;;;;;;43.00;21.40;;;7.20;99.90;;;;;;5049994;28;20124;-57
2021/11/06 00:44:19;;;;;;;42.97;21.40;;;7.10;99.90;;;;;;5047192;28;20021;-57
2021/11/06 00:46:45;;;;;;;43.22;19.48;;;7.10;99.90;;;;;;5050456;28;20025;-56
2021/11/06 00:49:11;;;;;;;42.17;19.67;;;7.00;99.90;;;;;;5047904;28;20017;-57
2021/11/06 00:51:37;;;;;;;39.90;19.52;;;6.90;99.90;;;;;;5050799;28;20059;-59
2021/11/06 00:54:03;;;;;;;38.10;19.05;;;6.80;99.90;;;;;;5049434;28;20483;-55
2021/11/06 00:56:28;;;;;;;45.38;19.33;;;6.80;99.90;;;;;;5049866;28;20029;-57
2021/11/06 00:58:54;;;;;;;40.08;19.90;;;6.70;99.90;;;;;;5050789;28;20104;-55
2021/11/06 01:01:19;;;;;;;43.33;19.75;;;6.60;99.90;;;;;;5050133;28;20086;-55
2021/11/06 01:03:45;;;;;;;41.55;19.45;;;6.50;99.90;;;;;;5049275;28;20033;-57
2021/11/06 01:06:11;;;;;;;46.00;21.42;;;6.50;99.90;;;;;;5048142;28;20039;-56
2021/11/06 01:08:37;;;;;;;40.92;19.75;;;6.40;99.90;;;;;;5049809;28;20506;-60
2021/11/06 01:11:03;;;;;;;47.58;20.58;;;6.40;99.90;;;;;;5050047;28;20027;-58
2021/11/06 01:13:28;;;;;;;45.47;20.58;;;6.40;99.90;;;;;;5045971;28;20036;-55
2021/11/06 01:15:54;;;;;;;46.38;21.70;;;6.40;99.90;;;;;;5050335;28;20104;-58
2021/11/06 01:18:20;;;;;;;42.50;20.25;;;6.30;99.90;;;;;;5049375;28;20116;-56
2021/11/06 01:20:45;;;;;;;38.35;18.10;;;6.30;99.90;;;;;;5050665;28;20032;-56
2021/11/06 01:23:11;;;;;;;40.60;20.35;;;6.30;99.90;;;;;;5049612;28;20036;-58
2021/11/06 01:25:37;;;;;;;43.38;19.70;;;6.20;99.90;;;;;;5050806;28;20029;-58
2021/11/06 01:28:02;;;;;;;37.50;18.45;;;6.20;99.90;;;;;;5047667;28;20033;-56
2021/11/06 01:30:28;;;;;;;42.25;20.02;;;6.20;99.90;;;;;;5051882;28;20083;-58
2021/11/06 01:32:54;;;;;;;38.42;17.40;;;6.20;99.90;;;;;;5051113;28;20029;-60
2021/11/06 01:35:19;;;;;;;44.88;20.02;;;6.10;99.90;;;;;;5050475;28;20043;-58
2021/11/06 01:37:45;;;;;;;42.20;19.27;;;6.10;99.90;;;;;;5050753;28;20471;-59
2021/11/06 01:40:14;;;;;;;39.65;19.80;;;6.00;99.90;;;;;;5050044;28;20099;-56
2021/11/06 01:42:41;;;;;;;43.55;19.77;;;6.00;99.90;;;;;;5047717;28;20029;-57
2021/11/06 01:45:08;;;;;;;44.97;20.23;;;5.90;99.90;;;;;;5047421;28;20056;-57
2021/11/06 01:47:33;;;;;;;45.47;19.55;;;5.80;99.90;;;;;;5031903;28;20113;-58
2021/11/06 01:49:59;;;;;;;36.22;18.42;;;5.70;99.90;;;;;;5048611;28;20044;-58
2021/11/06 01:52:24;;;;;;;35.08;18.45;;;5.70;99.90;;;;;;5051266;28;20051;-57
2021/11/06 01:54:50;;;;;;;41.35;18.80;;;5.70;99.90;;;;;;5049580;28;20506;-58
2021/11/06 01:57:17;;;;;;;36.85;17.27;;;5.60;99.90;;;;;;5050890;28;20047;-54
2021/11/06 01:59:44;;;;;;;42.63;18.55;;;5.70;99.90;;;;;;5051193;28;20400;-57
2021/11/06 02:02:11;;;;;;;37.13;16.38;;;5.70;99.90;;;;;;5051162;28;20033;-55
2021/11/06 02:04:38;;;;;;;37.58;16.60;;;5.70;99.90;;;;;;5044066;28;20109;-56
2021/11/06 02:07:03;;;;;;;32.65;16.33;;;5.80;99.90;;;;;;5050093;28;20529;-56
2021/11/06 02:09:29;;;;;;;34.17;16.08;;;5.80;99.90;;;;;;5045120;28;20045;-57
2021/11/06 02:11:56;;;;;;;31.90;17.67;;;5.80;99.90;;;;;;5050694;28;20032;-60
2021/11/06 02:14:22;;;;;;;36.28;17.83;;;5.70;99.90;;;;;;5049385;28;20064;-58
2021/11/06 02:16:48;;;;;;;36.28;15.90;;;5.80;99.90;;;;;;5050349;28;20017;-58
2021/11/06 02:19:14;;;;;;;32.40;16.20;;;5.70;99.90;;;;;;5049260;28;20033;-55
2021/11/06 02:21:40;;;;;;;35.15;15.23;;;5.70;99.90;;;;;;5049176;28;20090;-56
2021/11/06 02:24:06;;;;;;;36.50;15.75;;;5.60;99.90;;;;;;5049609;28;20036;-52
2021/11/06 02:26:32;;;;;;;38.83;17.42;;;5.60;99.90;;;;;;5049232;28;20025;-55
2021/11/06 02:29:01;;;;;;;27.42;15.00;;;5.60;99.90;;;;;;5047874;28;20029;-60
2021/11/06 02:31:27;;;;;;;33.30;15.18;;;5.60;99.90;;;;;;5049899;28;20021;-56
2021/11/06 02:33:53;;;;;;;29.30;13.95;;;5.50;99.90;;;;;;5049702;28;20017;-59
2021/11/06 02:36:20;;;;;;;31.95;14.55;;;5.50;99.90;;;;;;5050535;28;20858;-55
2021/11/06 02:38:47;;;;;;;31.70;14.93;;;5.40;99.90;;;;;;5049045;28;20021;-57
2021/11/06 02:41:13;;;;;;;33.38;16.20;;;5.40;99.90;;;;;;5044054;28;20383;-56
2021/11/06 02:43:38;;;;;;;48.53;15.27;;;5.30;99.90;;;;;;5049148;28;20036;-56
2021/11/06 02:46:05;;;;;;;36.00;15.13;;;5.30;99.90;;;;;;5050824;28;20108;-58
2021/11/06 02:48:30;;;;;;;28.05;14.43;;;5.30;99.90;;;;;;5050445;28;20021;-56
2021/11/06 02:50:56;;;;;;;36.25;15.40;;;5.20;99.90;;;;;;5049839;28;20027;-59
2021/11/06 02:53:21;;;;;;;37.67;15.23;;;5.20;99.90;;;;;;5049708;28;20025;-61
2021/11/06 02:55:48;;;;;;;34.42;14.82;;;5.10;99.90;;;;;;5050514;28;20098;-60
2021/11/06 02:58:14;;;;;;;34.40;15.73;;;5.10;99.90;;;;;;5050025;28;20029;-55
2021/11/06 03:00:40;;;;;;;29.67;14.98;;;5.10;99.90;;;;;;5045453;28;20399;-60
2021/11/06 03:03:06;;;;;;;31.58;14.95;;;5.10;99.90;;;;;;5049540;28;20060;-54
2021/11/06 03:05:31;;;;;;;32.20;13.85;;;5.10;99.90;;;;;;5049624;28;20056;-60
2021/11/06 03:07:58;;;;;;;30.55;15.07;;;5.10;99.90;;;;;;5050113;28;20057;-59
2021/11/06 03:10:24;;;;;;;30.70;15.50;;;5.10;99.90;;;;;;5049541;28;20479;-58
2021/11/06 03:12:50;;;;;;;26.98;13.98;;;5.10;99.90;;;;;;5049499;28;20043;-58
2021/11/06 03:15:16;;;;;;;28.00;13.65;;;5.10;99.90;;;;;;5019347;28;20025;-53
2021/11/06 03:17:42;;;;;;;34.78;14.57;;;5.10;99.90;;;;;;5049932;28;20075;-54
2021/11/06 03:20:10;;;;;;;33.50;15.88;;;5.10;99.90;;;;;;5050060;28;20036;-56
2021/11/06 03:22:35;;;;;;;30.98;13.65;;;5.10;99.90;;;;;;5048866;28;20044;-55
2021/11/06 03:25:02;;;;;;;28.85;13.38;;;5.00;99.90;;;;;;5048122;28;20025;-59
2021/11/06 03:27:28;;;;;;;24.42;12.13;;;4.90;99.90;;;;;;5050041;28;20025;-59
2021/11/06 03:29:54;;;;;;;28.20;13.43;;;4.90;99.90;;;;;;5049484;28;20024;-58
2021/11/06 03:32:20;;;;;;;25.70;12.55;;;4.80;99.90;;;;;;5066703;22;20487;-62
2021/11/06 03:34:46;;;;;;;26.35;14.43;;;4.80;99.90;;;;;;5056726;28;20453;-64
2021/11/06 03:37:11;;;;;;;24.65;12.10;;;4.80;99.90;;;;;;5062483;28;20029;-63
2021/11/06 03:39:37;;;;;;;37.22;15.60;;;4.80;99.90;;;;;;5063242;28;20025;-61
2021/11/06 03:42:07;;;;;;;43.13;13.68;;;4.70;99.90;;;;;;5062429;28;20059;-64
2021/11/06 03:44:33;;;;;;;33.65;13.38;;;4.70;99.90;;;;;;5065022;28;20017;-62
2021/11/06 03:46:59;;;;;;;32.95;14.40;;;4.70;99.90;;;;;;5072002;28;20055;-62
2021/11/06 03:49:25;;;;;;;27.48;13.52;;;4.70;99.90;;;;;;5071411;28;20543;-63
2021/11/06 03:51:50;;;;;;;33.78;15.23;;;4.60;99.90;;;;;;5072477;28;20037;-63
2021/11/06 03:54:16;;;;;;;33.42;14.55;;;4.60;99.90;;;;;;5070944;28;20056;-63
2021/11/06 03:56:42;;;;;;;40.55;15.02;;;4.70;99.90;;;;;;5071617;28;20530;-64
2021/11/06 03:59:08;;;;;;;33.08;15.18;;;4.70;99.90;;;;;;5070340;28;20103;-62
2021/11/06 04:01:34;;;;;;;34.42;14.80;;;4.60;99.90;;;;;;5071592;28;20062;-62
2021/11/06 04:04:00;;;;;;;35.25;15.55;;;4.60;99.90;;;;;;5063255;28;20065;-62
2021/11/06 04:06:25;;;;;;;38.33;13.85;;;4.50;99.90;;;;;;5071650;28;20092;-65
2021/11/06 04:08:51;;;;;;;28.48;13.65;;;4.50;99.90;;;;;;5071914;28;20147;-64
2021/11/06 04:11:21;;;;;;;29.95;13.45;;;4.50;99.90;;;;;;5072198;28;20025;-63
2021/11/06 04:13:47;;;;;;;30.27;13.75;;;4.40;99.90;;;;;;5065510;28;20394;-63
2021/11/06 04:16:13;;;;;;;34.80;15.18;;;4.30;99.90;;;;;;5071420;28;20444;-65
2021/11/06 04:18:38;;;;;;;29.00;13.35;;;4.30;99.90;;;;;;5071038;28;20099;-64
2021/11/06 04:21:04;;;;;;;35.15;14.88;;;4.20;99.90;;;;;;5070294;28;20029;-64
2021/11/06 04:23:30;;;;;;;37.47;15.57;;;4.20;99.90;;;;;;5070889;28;20517;-64
2021/11/06 04:25:58;;;;;;;27.20;13.48;;;4.20;99.90;;;;;;5071022;28;20109;-63
2021/11/06 04:28:24;;;;;;;29.92;14.52;;;4.20;99.90;;;;;;5053735;28;20061;-63
2021/11/06 04:30:49;;;;;;;27.02;13.55;;;4.20;99.90;;;;;;5071381;28;20017;-63
2021/11/06 04:33:15;;;;;;;30.25;14.10;;;4.20;99.90;;;;;;5069715;28;20079;-62
2021/11/06 04:35:41;;;;;;;27.15;13.93;;;4.10;99.90;;;;;;5071312;28;20038;-63
2021/11/06 04:38:06;;;;;;;35.10;14.18;;;4.10;99.90;;;;;;5070688;28;20048;-63
2021/11/06 04:40:32;;;;;;;25.23;13.05;;;4.00;99.90;;;;;;5069985;28;20033;-63
2021/11/06 04:42:58;;;;;;;30.55;14.82;;;4.10;99.90;;;;;;5068062;28;20063;-61
2021/11/06 04:45:23;;;;;;;27.40;13.85;;;4.10;99.90;;;;;;5070875;28;20032;-63
2021/11/06 04:47:49;;;;;;;32.20;15.07;;;4.10;99.90;;;;;;5071242;28;20021;-64
2021/11/06 04:50:15;;;;;;;29.38;14.10;;;4.20;99.90;;;;;;5071835;28;20028;-63
2021/11/06 04:52:41;;;;;;;35.00;15.43;;;4.10;99.90;;;;;;5070583;28;20035;-61
2021/11/06 04:55:10;;;;;;;28.33;14.13;;;4.10;99.90;;;;;;5071042;28;20036;-61
2021/11/06 04:57:35;;;;;;;29.63;14.70;;;4.10;99.90;;;;;;5065409;28;20032;-64
2021/11/06 05:00:03;;;;;;;30.17;14.27;;;4.10;99.90;;;;;;5071090;28;20460;-62
2021/11/06 05:02:29;;;;;;;32.65;15.32;;;4.20;99.90;;;;;;5070513;28;20376;-61
2021/11/06 05:04:54;;;;;;;33.58;16.88;;;4.20;99.90;;;;;;5064963;28;20032;-63
2021/11/06 05:07:20;;;;;;;40.08;15.65;;;4.20;99.90;;;;;;5070713;28;20032;-63
2021/11/06 05:09:45;;;;;;;34.47;16.33;;;4.20;99.90;;;;;;5070118;28;20027;-63
2021/11/06 05:12:12;;;;;;;32.58;14.80;;;4.20;99.90;;;;;;5059027;28;20512;-64
2021/11/06 05:14:39;;;;;;;35.20;14.55;;;4.20;99.90;;;;;;5070336;28;20027;-62
2021/11/06 05:17:05;;;;;;;28.95;14.02;;;4.20;99.90;;;;;;5069350;28;20093;-65
2021/11/06 05:19:30;;;;;;;29.98;14.23;;;4.20;99.90;;;;;;5067776;28;20502;-64
2021/11/06 05:21:56;;;;;;;30.13;14.70;;;4.20;99.90;;;;;;5070197;28;20118;-64
2021/11/06 05:24:21;;;;;;;32.25;15.20;;;4.30;99.90;;;;;;5064553;28;20395;-63
2021/11/06 05:26:47;;;;;;;35.50;15.48;;;4.30;99.90;;;;;;5069461;28;20387;-64
2021/11/06 05:29:12;;;;;;;30.95;15.95;;;4.30;99.90;;;;;;5066591;28;20051;-63
2021/11/06 05:31:40;;;;;;;29.55;14.00;;;4.20;99.90;;;;;;5070312;28;20031;-62
2021/11/06 05:34:06;;;;;;;28.17;14.05;;;4.20;99.90;;;;;;5069555;28;20497;-63
2021/11/06 05:36:33;;;;;;;26.88;13.20;;;4.10;99.90;;;;;;5069898;28;20032;-63
2021/11/06 05:38:59;;;;;;;30.35;12.43;;;4.00;99.90;;;;;;5070771;28;20025;-62
2021/11/06 05:41:24;;;;;;;24.15;12.90;;;3.90;99.90;;;;;;5069994;28;20441;-63
2021/11/06 05:43:50;;;;;;;30.13;12.52;;;3.80;99.90;;;;;;5068307;28;20533;-62
2021/11/06 05:46:16;;;;;;;29.05;13.07;;;3.80;99.90;;;;;;5070085;28;20024;-63
2021/11/06 05:48:41;;;;;;;27.25;13.43;;;3.70;99.90;;;;;;5069846;28;20024;-63
2021/11/06 05:51:07;;;;;;;29.30;13.48;;;3.70;99.90;;;;;;5070080;28;20174;-63
2021/11/06 05:53:32;;;;;;;37.75;15.98;;;3.60;99.90;;;;;;5069221;28;20028;-63
2021/11/06 05:55:58;;;;;;;35.42;15.45;;;3.60;99.90;;;;;;5068472;28;20032;-64
2021/11/06 05:58:24;;;;;;;33.38;14.50;;;3.50;99.90;;;;;;5059934;28;20020;-64
2021/11/06 06:00:50;;;;;;;34.65;16.38;;;3.50;99.90;;;;;;5063375;28;20028;-64
2021/11/06 06:03:15;;;;;;;31.17;15.55;;;3.50;99.90;;;;;;5068722;28;20085;-64
2021/11/06 06:05:42;;;;;;;31.52;14.15;;;3.50;99.90;;;;;;5069453;28;20032;-62
2021/11/06 06:08:08;;;;;;;29.35;14.00;;;3.60;99.90;;;;;;5068760;28;20032;-62
2021/11/06 06:10:33;;;;;;;31.50;13.93;;;3.60;99.90;;;;;;5069473;28;20094;-65
2021/11/06 06:12:59;;;;;;;30.20;15.13;;;3.60;99.90;;;;;;5067505;28;20068;-63
2021/11/06 06:15:24;;;;;;;31.98;14.38;;;3.60;99.90;;;;;;5069673;28;20086;-62
2021/11/06 06:17:51;;;;;;;31.38;13.82;;;3.50;99.90;;;;;;5069753;28;20103;-61
2021/11/06 06:20:18;;;;;;;29.33;15.75;;;3.50;99.90;;;;;;5069930;28;20029;-63
2021/11/06 06:22:45;;;;;;;29.85;15.43;;;3.50;99.90;;;;;;5068666;28;20048;-62
2021/11/06 06:25:12;;;;;;;33.22;15.85;;;3.50;99.90;;;;;;5056858;28;20032;-65
2021/11/06 06:27:38;;;;;;;41.95;19.23;;;3.40;99.90;;;;;;5069997;28;20032;-64
2021/11/06 06:30:06;;;;;;;36.88;16.23;;;3.50;99.90;;;;;;5069718;28;20024;-64
2021/11/06 06:32:31;;;;;;;29.80;13.75;;;3.50;99.90;;;;;;5068769;28;20028;-64
2021/11/06 06:34:57;;;;;;;28.38;14.73;;;3.50;99.90;;;;;;5069494;28;20082;-64
2021/11/06 06:37:23;;;;;;;27.55;14.82;;;3.50;99.90;;;;;;5068973;28;20554;-64
2021/11/06 06:39:48;;;;;;;28.02;13.82;;;3.50;99.90;;;;;;5053462;28;20509;-63
2021/11/06 06:42:14;;;;;;;28.70;14.70;;;3.50;99.90;;;;;;5061736;28;20057;-64
2021/11/06 06:44:39;;;;;;;37.13;15.13;;;3.50;99.90;;;;;;5068155;28;20591;-63
2021/11/06 06:47:05;;;;;;;29.80;16.35;;;3.60;99.90;;;;;;5069622;28;20441;-64
2021/11/06 06:49:31;;;;;;;35.20;13.98;;;3.60;99.90;;;;;;5069353;28;20032;-63
2021/11/06 06:51:57;;;;;;;32.88;15.02;;;3.70;99.90;;;;;;5066635;28;20028;-63
2021/11/06 06:54:23;;;;;;;29.13;13.93;;;3.70;99.90;;;;;;5069273;28;20525;-62
2021/11/06 06:56:49;;;;;;;34.50;14.10;;;3.80;99.90;;;;;;5068501;28;20103;-63
2021/11/06 06:59:15;;;;;;;30.63;14.80;;;3.90;99.90;;;;;;5070251;28;20028;-63
2021/11/06 07:01:40;;;;;;;32.85;14.90;;;3.90;99.90;;;;;;5068410;28;20032;-62
2021/11/06 07:04:06;;;;;;;34.60;14.25;;;3.90;99.90;;;;;;5068195;28;20029;-62
2021/11/06 07:06:31;;;;;;;30.90;13.77;;;4.00;99.90;;;;;;5069566;28;20099;-63
2021/11/06 07:08:59;;;;;;;29.67;14.13;;;4.00;99.90;;;;;;5068685;28;20120;-63
2021/11/06 07:11:26;;;;;;;32.08;15.40;;;4.00;99.90;;;;;;5068933;28;20083;-62
2021/11/06 07:13:52;;;;;;;32.55;15.20;;;4.00;99.90;;;;;;5068120;28;20754;-62
2021/11/06 07:16:18;;;;;;;25.08;13.55;;;3.90;99.90;;;;;;5070464;28;20103;-63
2021/11/06 07:18:44;;;;;;;23.65;12.43;;;3.90;99.90;;;;;;5072222;28;20612;-61
2021/11/06 07:21:09;;;;;;;30.63;13.63;;;3.90;99.90;;;;;;5059288;28;20509;-63
2021/11/06 07:23:35;;;;;;;31.80;14.35;;;3.80;99.90;;;;;;5069507;28;20196;-63
2021/11/06 07:26:01;;;;;;;25.98;13.13;;;3.90;99.90;;;;;;5072641;28;20502;-64
2021/11/06 07:28:29;;;;;;;30.25;15.52;;;3.90;99.90;;;;;;5061196;28;20085;-63
2021/11/06 07:30:54;;;;;;;29.15;14.35;;;4.00;99.90;;;;;;5068815;28;20017;-64
2021/11/06 07:33:20;;;;;;;30.23;14.73;;;4.10;99.90;;;;;;5051323;28;20055;-63
2021/11/06 07:35:45;;;;;;;24.35;13.55;;;4.20;99.90;;;;;;5069883;28;20126;-63
2021/11/06 07:38:13;;;;;;;32.58;13.93;;;4.20;99.90;;;;;;5064428;28;20463;-63
2021/11/06 07:40:39;;;;;;;31.90;15.10;;;4.30;99.90;;;;;;5072445;28;20394;-63
2021/11/06 07:43:05;;;;;;;41.00;16.38;;;4.40;99.90;;;;;;5071221;28;20033;-64
2021/11/06 07:45:32;;;;;;;30.73;15.07;;;4.40;99.90;;;;;;5072298;28;20516;-65
2021/11/06 07:47:58;;;;;;;38.72;15.65;;;4.50;99.90;;;;;;5067739;28;20086;-64
2021/11/06 07:50:24;;;;;;;29.40;15.38;;;4.60;99.90;;;;;;5070126;28;20487;-64
2021/11/06 07:52:49;;;;;;;27.55;14.52;;;4.60;99.90;;;;;;5061102;28;20038;-64
2021/11/06 07:55:15;;;;;;;28.25;14.90;;;4.70;99.90;;;;;;5064037;28;20040;-64
2021/11/06 07:57:41;;;;;;;36.88;19.00;;;4.70;99.90;;;;;;5063552;28;20108;-64
2021/11/06 08:00:10;;;;;;;33.08;18.10;;;4.80;99.90;;;;;;5063000;28;20032;-65
2021/11/06 08:02:37;;;;;;;43.22;20.25;;;4.90;99.90;;;;;;5067153;28;20055;-63
2021/11/06 08:05:05;;;;;;;41.38;19.27;;;5.00;99.90;;;;;;5063604;28;20024;-64
2021/11/06 08:07:31;;;;;;;36.95;19.95;;;5.20;99.90;;;;;;5067610;28;20398;-64
2021/11/06 08:09:56;;;;;;;35.33;19.52;;;5.30;99.90;;;;;;5061326;28;20025;-64
2021/11/06 08:12:22;;;;;;;40.33;19.13;;;5.40;99.90;;;;;;5059878;28;20052;-61
2021/11/06 08:14:47;;;;;;;38.33;18.05;;;5.50;99.90;;;;;;5066827;28;20028;-62
2021/11/06 08:17:14;;;;;;;37.75;18.95;;;5.60;99.90;;;;;;5067186;28;20419;-61
2021/11/06 08:19:40;;;;;;;43.03;19.63;;;5.70;99.90;;;;;;5061463;28;20032;-63
2021/11/06 08:22:06;;;;;;;38.00;19.75;;;5.80;99.90;;;;;;5058380;28;20510;-63
2021/11/06 08:24:31;;;;;;;36.25;18.65;;;5.90;99.90;;;;;;5064347;28;20063;-64
2021/11/06 08:26:57;;;;;;;36.67;19.02;;;5.90;99.90;;;;;;5061116;28;20032;-63
2021/11/06 08:29:22;;;;;;;36.95;19.17;;;6.00;99.90;;;;;;5067149;28;20436;-64
2021/11/06 08:31:48;;;;;;;31.30;16.88;;;6.10;99.90;;;;;;5064179;28;20060;-64
2021/11/06 08:34:14;;;;;;;31.80;16.63;;;6.10;99.90;;;;;;5052036;28;20036;-64
2021/11/06 08:36:39;;;;;;;36.08;17.35;;;6.20;99.90;;;;;;5063668;28;20032;-64
2021/11/06 08:39:06;;;;;;;29.33;16.52;;;6.30;99.90;;;;;;5065914;28;20031;-63
2021/11/06 08:41:32;;;;;;;39.28;20.27;;;6.40;99.90;;;;;;5060505;28;20398;-65
2021/11/06 08:43:57;;;;;;;37.78;20.67;;;6.50;99.90;;;;;;5060037;28;20021;-64
2021/11/06 08:46:23;;;;;;;32.58;16.30;;;6.60;99.90;;;;;;5063456;28;20364;-64
2021/11/06 08:48:49;;;;;;;32.08;15.63;;;6.70;99.90;;;;;;5030049;28;20598;-64
2021/11/06 08:51:14;;;;;;;28.90;13.80;;;6.80;99.90;;;;;;5060490;28;20111;-64
2021/11/06 08:53:40;;;;;;;20.25;12.45;;;6.90;99.90;;;;;;5061106;28;20025;-63
2021/11/06 08:56:06;;;;;;;22.15;10.82;;;7.00;99.90;;;;;;5060955;28;20120;-63
2021/11/06 08:58:32;;;;;;;18.60;10.30;;;7.10;99.90;;;;;;5057969;28;20033;-64
2021/11/06 09:00:59;;;;;;;19.77;10.27;;;7.30;99.90;;;;;;5058638;28;20881;-64
2021/11/06 09:03:25;;;;;;;21.48;10.05;;;7.40;99.90;;;;;;5058611;28;20513;-64
2021/11/06 09:05:53;;;;;;;16.42;7.88;;;7.60;99.90;;;;;;5061375;28;20527;-64
2021/11/06 09:08:31;;;;;;;15.50;8.07;;;7.70;99.90;;;;;;5065306;28;20031;-64
2021/11/06 09:11:02;;;;;;;10.73;6.75;;;7.90;99.90;;;;;;5062075;28;20032;-65
2021/11/06 09:13:28;;;;;;;14.88;6.55;;;7.90;99.90;;;;;;5056572;28;20393;-64
2021/11/06 09:15:54;;;;;;;14.70;6.53;;;8.10;99.90;;;;;;5060280;28;20035;-63
2021/11/06 09:18:20;;;;;;;8.90;5.57;;;8.20;99.90;;;;;;5069099;28;20032;-63
2021/11/06 09:20:46;;;;;;;12.30;5.65;;;8.30;99.90;;;;;;5053452;28;20490;-63
2021/11/06 09:23:12;;;;;;;12.40;5.63;;;8.40;99.90;;;;;;5068197;28;20107;-63
2021/11/06 09:25:37;;;;;;;7.88;5.35;;;8.50;99.90;;;;;;5068730;28;20108;-64
2021/11/06 09:28:04;;;;;;;12.02;5.50;;;8.60;99.90;;;;;;5065346;28;20028;-64
2021/11/06 09:30:30;;;;;;;10.05;5.30;;;8.70;99.90;;;;;;5068344;28;20032;-64
2021/11/06 09:32:55;;;;;;;7.75;4.78;;;8.80;99.90;;;;;;5087541;23;20529;-59
2021/11/06 09:35:22;;;;;;;12.98;4.93;;;8.80;99.90;;;;;;5049737;28;20041;-56
2021/11/06 09:37:48;;;;;;;11.85;4.97;;;8.80;99.90;;;;;;5050497;28;20024;-54
2021/11/06 09:40:15;;;;;;;10.25;4.55;;;8.90;99.90;;;;;;5047795;28;20414;-57
2021/11/06 09:42:41;;;;;;;13.10;5.07;;;8.90;99.90;;;;;;5058533;28;20042;-57
2021/11/06 09:45:12;;;;;;;12.80;6.15;;;9.00;99.90;;;;;;5030644;28;20025;-58
2021/11/06 09:47:42;;;;;;;11.55;3.95;;;9.10;99.90;;;;;;5050091;28;20099;-58
2021/11/06 09:50:09;;;;;;;9.45;4.22;;;9.20;99.90;;;;;;5044147;28;20112;-61
2021/11/06 09:52:34;;;;;;;9.23;4.35;;;9.20;99.90;;;;;;5048688;28;20115;-58
2021/11/06 09:55:00;;;;;;;9.13;4.40;;;9.20;99.90;;;;;;5048975;28;20482;-53
2021/11/06 09:57:26;;;;;;;6.35;4.05;;;9.30;99.90;;;;;;5049386;28;20542;-55
2021/11/06 09:59:51;;;;;;;8.32;4.45;;;9.40;99.90;;;;;;5048609;28;20020;-58
2021/11/06 10:02:17;;;;;;;7.88;4.03;;;9.40;99.90;;;;;;5048426;28;20399;-59
2021/11/06 10:04:43;;;;;;;11.60;4.20;;;9.50;99.90;;;;;;5047269;28;20109;-60
2021/11/06 10:07:21;;;;;;;13.10;4.13;;;9.60;99.90;;;;;;5048656;28;20025;-60
2021/11/06 10:10:00;;;;;;;15.00;4.05;;;9.70;99.90;;;;;;5045652;28;20021;-61
2021/11/06 10:12:31;;;;;;;5.85;3.55;;;9.80;99.90;;;;;;5042426;28;21684;-53
2021/11/06 10:15:07;;;;;;;10.05;3.92;;;9.90;99.90;;;;;;5039479;28;20052;-59
2021/11/06 10:17:35;;;;;;;5.88;3.88;;;9.90;99.90;;;;;;5047611;28;20410;-60
2021/11/06 10:20:21;;;;;;;8.63;3.38;;;10.00;99.90;;;;;;5045978;28;20545;-58
2021/11/06 10:22:46;;;;;;;7.03;3.95;;;10.00;99.90;;;;;;5047520;28;20086;-58
2021/11/06 10:25:14;;;;;;;5.35;3.63;;;10.10;99.90;;;;;;5043106;28;20422;-60
2021/11/06 10:27:42;;;;;;;12.10;3.40;;;10.20;99.90;;;;;;5044513;28;20025;-61
2021/11/06 10:30:18;;;;;;;8.18;3.45;;;10.20;99.90;;;;;;5045100;28;20424;-55
2021/11/06 10:32:55;;;;;;;7.30;3.05;;;10.30;99.90;;;;;;5044423;28;20028;-61
2021/11/06 10:35:23;;;;;;;7.97;3.03;;;10.40;99.90;;;;;;5047983;28;20032;-57
2021/11/06 10:38:03;;;;;;;6.57;2.67;;;10.40;99.90;;;;;;5049510;28;20407;-55
2021/11/06 10:40:32;;;;;;;4.63;2.20;;;10.50;99.90;;;;;;5048209;28;20039;-57
2021/11/06 10:43:01;;;;;;;10.52;2.60;;;10.70;99.90;;;;;;5047065;28;20024;-56
2021/11/06 10:45:33;;;;;;;9.55;2.53;;;10.80;99.90;;;;;;5047132;28;20517;-56
2021/11/06 10:47:59;;;;;;;4.30;1.85;;;10.90;99.90;;;;;;5047865;28;20029;-60
2021/11/06 10:50:50;;;;;;;3.95;2.00;;;11.00;99.90;;;;;;5048993;28;20032;-59
2021/11/06 10:53:34;;;;;;;5.53;2.33;;;11.10;99.90;;;;;;5044649;28;20037;-60
2021/11/06 10:56:02;;;;;;;5.93;2.20;;;11.20;99.90;;;;;;5047817;28;20441;-58
2021/11/06 10:58:30;;;;;;;4.53;2.88;;;11.40;99.90;;;;;;5053125;28;20056;-59
2021/11/06 11:00:59;;;;;;;8.90;4.05;;;11.40;99.90;;;;;;5052616;28;20107;-60
2021/11/06 11:03:46;;;;;;;3.35;1.63;;;11.50;99.90;;;;;;5051927;28;20025;-57
2021/11/06 11:06:28;;;;;;;3.60;1.77;;;11.60;99.90;;;;;;5049260;28;22039;-59
2021/11/06 11:08:57;;;;;;;6.97;2.15;;;11.70;99.90;;;;;;5053003;28;20470;-58
2021/11/06 11:11:25;;;;;;;5.00;1.55;;;11.70;99.90;;;;;;5053756;28;20060;-54
2021/11/06 11:13:53;;;;;;;5.93;1.40;;;11.80;99.90;;;;;;5046760;28;20127;-55
2021/11/06 11:16:20;;;;;;;3.30;1.30;;;11.90;99.90;;;;;;5048150;28;20036;-60
2021/11/06 11:18:48;;;;;;;3.75;1.42;;;12.00;99.90;;;;;;5049554;28;20039;-56
2021/11/06 11:21:26;;;;;;;9.27;1.30;;;12.30;99.90;;;;;;5055092;28;20041;-58
2021/11/06 11:23:59;;;;;;;3.78;0.90;;;12.30;99.90;;;;;;5056287;28;20058;-56
2021/11/06 11:26:57;;;;;;;1.98;0.90;;;12.30;99.90;;;;;;5047984;28;20081;-57
2021/11/06 11:29:28;;;;;;;2.05;0.80;;;12.50;99.90;;;;;;5038953;28;20407;-60
2021/11/06 11:31:55;;;;;;;1.42;0.80;;;12.70;99.90;;;;;;5040890;28;20040;-58
2021/11/06 11:34:21;;;;;;;2.35;0.90;;;12.70;99.90;;;;;;5041715;28;20094;-59
2021/11/06 11:36:48;;;;;;;5.40;0.85;;;12.80;99.90;;;;;;5042353;28;20044;-59
2021/11/06 11:39:17;;;;;;;1.85;0.82;;;12.70;99.90;;;;;;5042273;28;20029;-60
2021/11/06 11:41:48;;;;;;;3.25;0.90;;;12.60;99.90;;;;;;5041004;28;20036;-59
2021/11/06 11:44:51;;;;;;;6.70;0.80;;;12.50;99.90;;;;;;5042382;28;20142;-56
2021/11/06 11:47:43;;;;;;;1.38;0.80;;;12.60;99.90;;;;;;5042254;28;20671;-53
2021/11/06 11:50:17;;;;;;;3.70;0.80;;;12.90;99.90;;;;;;5042665;28;20121;-56
2021/11/06 11:52:48;;;;;;;2.95;1.10;;;13.00;99.90;;;;;;5041437;28;20181;-59
2021/11/06 11:55:28;;;;;;;6.57;0.90;;;13.10;99.90;;;;;;5039779;28;20036;-59
2021/11/06 11:58:22;;;;;;;1.65;0.73;;;13.00;99.90;;;;;;5043203;28;20078;-59
2021/11/06 12:01:01;;;;;;;3.25;0.98;;;12.90;99.90;;;;;;5039880;28;20090;-61
2021/11/06 12:03:43;;;;;;;1.73;1.13;;;12.80;99.90;;;;;;5021485;28;20029;-53
2021/11/06 12:06:39;;;;;;;1.60;0.80;;;12.80;99.90;;;;;;5043379;28;20507;-56
2021/11/06 12:09:11;;;;;;;2.72;0.80;;;12.80;99.90;;;;;;5041447;28;20033;-58
2021/11/06 12:11:57;;;;;;;4.22;0.80;;;13.00;99.90;;;;;;5043826;28;20029;-54
2021/11/06 12:14:23;;;;;;;1.63;0.73;;;13.00;99.90;;;;;;5042347;28;20450;-60
2021/11/06 12:16:56;;;;;;;1.42;0.60;;;13.10;99.90;;;;;;5038852;28;20116;-56
2021/11/06 12:19:49;;;;;;;1.52;0.73;;;13.20;99.90;;;;;;5039814;28;20812;-57
2021/11/06 12:22:19;;;;;;;1.80;0.70;;;13.20;99.90;;;;;;5040806;28;20227;-59
2021/11/06 12:25:11;;;;;;;3.85;0.88;;;13.30;99.90;;;;;;5019033;28;20044;-60
2021/11/06 12:27:37;;;;;;;3.75;0.90;;;13.40;99.90;;;;;;5038762;28;20047;-57
2021/11/06 12:30:03;;;;;;;4.18;0.82;;;13.40;99.90;;;;;;5041489;28;20372;-56
2021/11/06 12:32:46;;;;;;;3.92;0.82;;;13.40;99.90;;;;;;5038185;28;20545;-53
2021/11/06 12:35:11;;;;;;;3.08;0.88;;;13.50;99.90;;;;;;5039073;28;20644;-56
2021/11/06 12:37:39;;;;;;;3.38;0.82;;;13.60;99.90;;;;;;5039381;28;20054;-59
2021/11/06 12:40:30;;;;;;;0.77;0.55;;;13.60;99.90;;;;;;5042051;28;20216;-60
2021/11/06 12:43:21;;;;;;;2.75;0.82;;;13.70;99.90;;;;;;5037389;28;20061;-60